sensor_id;sensor_type;location;lat;lon;timestamp;temperature;humidity
11089;DHT22;5598;48.648;8.908;2023-03-31T00:01:08;9.10;99.90
11089;DHT22;5598;48.648;8.908;2023-03-31T00:03:35;9.10;99.90
11089;DHT22;5598;48.648;8.908;2023-03-31T00:06:09;9.10;99.90
11089;DHT22;5598;48.648;8.908;2023-03-31T00:08:37;9.10;99.90
11089;DHT22;5598;48.648;8.908;2023-03-31T00:11:05;9.00;99.90
11089;DHT22;5598;48.648;8.908;2023-03-31T00:13:35;9.00;99.90
11089;DHT22;5598;48.648;8.908;2023-03-31T00:16:04;9.00;99.90
11089;DHT22;5598;48.648;8.908;2023-03-31T00:18:31;9.00;99.90
11089;DHT22;5598;48.648;8.908;2023-03-31T00:21:09;9.00;99.90
11089;DHT22;5598;48.648;8.908;2023-03-31T00:23:39;9.00;99.90
11089;DHT22;5598;48.648;8.908;2023-03-31T00:26:06;9.00;99.90
11089;DHT22;5598;48.648;8.908;2023-03-31T00:28:34;9.00;99.90
11089;DHT22;5598;48.648;8.908;2023-03-31T00:31:02;9.00;99.90
11089;DHT22;5598;48.648;8.908;2023-03-31T00:33:29;9.00;99.90
11089;DHT22;5598;48.648;8.908;2023-03-31T00:35:56;9.00;99.90
11089;DHT22;5598;48.648;8.908;2023-03-31T00:38:26;9.00;99.90
11089;DHT22;5598;48.648;8.908;2023-03-31T00:40:54;9.00;99.90
11089;DHT22;5598;48.648;8.908;2023-03-31T00:43:27;8.90;99.90
11089;DHT22;5598;48.648;8.908;2023-03-31T00:46:02;8.90;99.90
11089;DHT22;5598;48.648;8.908;2023-03-31T00:48:30;8.90;99.90
11089;DHT22;5598;48.648;8.908;2023-03-31T00:51:00;8.90;99.90
11089;DHT22;5598;48.648;8.908;2023-03-31T00:53:31;8.90;99.90
11089;DHT22;5598;48.648;8.908;2023-03-31T00:56:01;9.00;99.90
11089;DHT22;5598;48.648;8.908;2023-03-31T00:58:32;9.00;99.90
11089;DHT22;5598;48.648;8.908;2023-03-31T01:01:01;9.00;99.90
11089;DHT22;5598;48.648;8.908;2023-03-31T01:03:30;9.00;99.90
11089;DHT22;5598;48.648;8.908;2023-03-31T01:05:59;9.00;99.90
11089;DHT22;5598;48.648;8.908;2023-03-31T01:08:30;9.00;99.90
11089;DHT22;5598;48.648;8.908;2023-03-31T01:11:00;8.90;99.90
11089;DHT22;5598;48.648;8.908;2023-03-31T01:13:29;9.00;99.90
11089;DHT22;5598;48.648;8.908;2023-03-31T01:15:56;9.10;99.90
11089;DHT22;5598;48.648;8.908;2023-03-31T01:18:24;9.10;99.90
11089;DHT22;5598;48.648;8.908;2023-03-31T01:21:13;9.20;99.90
11089;DHT22;5598;48.648;8.908;2023-03-31T01:24:11;9.10;99.90
11089;DHT22;5598;48.648;8.908;2023-03-31T01:26:53;9.10;99.90
11089;DHT22;5598;48.648;8.908;2023-03-31T01:29:50;9.00;99.90
11089;DHT22;5598;48.648;8.908;2023-03-31T01:32:55;9.00;99.90
11089;DHT22;5598;48.648;8.908;2023-03-31T01:35:57;8.90;99.90
11089;DHT22;5598;48.648;8.908;2023-03-31T01:39:06;8.90;99.90
11089;DHT22;5598;48.648;8.908;2023-03-31T01:41:48;8.90;99.90
11089;DHT22;5598;48.648;8.908;2023-03-31T01:44:26;9.00;99.90
11089;DHT22;5598;48.648;8.908;2023-03-31T01:46:59;9.10;99.90
11089;DHT22;5598;48.648;8.908;2023-03-31T01:49:33;9.10;99.90
11089;DHT22;5598;48.648;8.908;2023-03-31T01:52:07;9.10;99.90
11089;DHT22;5598;48.648;8.908;2023-03-31T01:54:44;9.00;99.90
11089;DHT22;5598;48.648;8.908;2023-03-31T01:57:18;8.90;99.90
11089;DHT22;5598;48.648;8.908;2023-03-31T01:59:53;8.90;99.90
11089;DHT22;5598;48.648;8.908;2023-03-31T02:02:24;8.80;99.90
11089;DHT22;5598;48.648;8.908;2023-03-31T02:04:56;8.80;99.90
11089;DHT22;5598;48.648;8.908;2023-03-31T02:07:27;8.80;99.90
11089;DHT22;5598;48.648;8.908;2023-03-31T02:10:00;8.80;99.90
11089;DHT22;5598;48.648;8.908;2023-03-31T02:12:32;8.70;99.90
11089;DHT22;5598;48.648;8.908;2023-03-31T02:15:01;8.70;99.90
11089;DHT22;5598;48.648;8.908;2023-03-31T02:17:29;8.70;99.90
11089;DHT22;5598;48.648;8.908;2023-03-31T02:19:58;8.70;99.90
11089;DHT22;5598;48.648;8.908;2023-03-31T02:22:31;8.60;99.90
11089;DHT22;5598;48.648;8.908;2023-03-31T02:25:01;8.60;99.90
11089;DHT22;5598;48.648;8.908;2023-03-31T02:27:32;8.50;99.90
11089;DHT22;5598;48.648;8.908;2023-03-31T02:30:01;8.60;99.90
11089;DHT22;5598;48.648;8.908;2023-03-31T02:32:31;8.50;99.90
11089;DHT22;5598;48.648;8.908;2023-03-31T02:35:00;8.50;99.90
11089;DHT22;5598;48.648;8.908;2023-03-31T02:37:27;8.50;99.90
11089;DHT22;5598;48.648;8.908;2023-03-31T02:39:58;8.60;99.90
11089;DHT22;5598;48.648;8.908;2023-03-31T02:42:25;8.60;99.90
11089;DHT22;5598;48.648;8.908;2023-03-31T02:44:59;8.60;99.90
11089;DHT22;5598;48.648;8.908;2023-03-31T02:47:27;8.50;99.90
11089;DHT22;5598;48.648;8.908;2023-03-31T02:49:57;8.50;99.90
11089;DHT22;5598;48.648;8.908;2023-03-31T02:52:33;8.50;99.90
11089;DHT22;5598;48.648;8.908;2023-03-31T03:01:04;8.30;99.90
11089;DHT22;5598;48.648;8.908;2023-03-31T03:03:40;8.20;99.90
11089;DHT22;5598;48.648;8.908;2023-03-31T03:06:22;8.10;99.90
11089;DHT22;5598;48.648;8.908;2023-03-31T03:09:03;8.00;99.90
11089;DHT22;5598;48.648;8.908;2023-03-31T03:11:38;8.00;99.90
11089;DHT22;5598;48.648;8.908;2023-03-31T03:14:12;7.90;99.90
11089;DHT22;5598;48.648;8.908;2023-03-31T03:16:47;7.80;99.90
11089;DHT22;5598;48.648;8.908;2023-03-31T03:19:18;7.70;99.90
11089;DHT22;5598;48.648;8.908;2023-03-31T03:21:46;7.70;99.90
11089;DHT22;5598;48.648;8.908;2023-03-31T03:24:14;7.80;99.90
11089;DHT22;5598;48.648;8.908;2023-03-31T03:26:41;7.80;99.90
11089;DHT22;5598;48.648;8.908;2023-03-31T03:29:09;7.80;99.90
11089;DHT22;5598;48.648;8.908;2023-03-31T03:31:37;7.80;99.90
11089;DHT22;5598;48.648;8.908;2023-03-31T03:34:06;7.80;99.90
11089;DHT22;5598;48.648;8.908;2023-03-31T03:36:34;7.80;99.90
11089;DHT22;5598;48.648;8.908;2023-03-31T03:39:00;7.80;99.90
11089;DHT22;5598;48.648;8.908;2023-03-31T03:41:28;7.80;99.90
11089;DHT22;5598;48.648;8.908;2023-03-31T03:43:55;7.90;99.90
11089;DHT22;5598;48.648;8.908;2023-03-31T03:46:22;7.90;99.90
11089;DHT22;5598;48.648;8.908;2023-03-31T03:48:49;7.90;99.90
11089;DHT22;5598;48.648;8.908;2023-03-31T03:51:17;7.90;99.90
11089;DHT22;5598;48.648;8.908;2023-03-31T03:53:44;7.90;99.90
11089;DHT22;5598;48.648;8.908;2023-03-31T03:56:10;7.90;99.90
11089;DHT22;5598;48.648;8.908;2023-03-31T03:58:37;7.80;99.90
11089;DHT22;5598;48.648;8.908;2023-03-31T04:01:04;7.80;99.90
11089;DHT22;5598;48.648;8.908;2023-03-31T04:03:31;7.80;99.90
11089;DHT22;5598;48.648;8.908;2023-03-31T04:05:58;7.80;99.90
11089;DHT22;5598;48.648;8.908;2023-03-31T04:08:26;7.80;99.90
11089;DHT22;5598;48.648;8.908;2023-03-31T04:10:52;7.80;99.90
11089;DHT22;5598;48.648;8.908;2023-03-31T04:13:19;7.70;99.90
11089;DHT22;5598;48.648;8.908;2023-03-31T04:15:46;7.70;99.90
11089;DHT22;5598;48.648;8.908;2023-03-31T04:18:13;7.70;99.90
11089;DHT22;5598;48.648;8.908;2023-03-31T04:20:47;7.70;99.90
11089;DHT22;5598;48.648;8.908;2023-03-31T04:23:19;7.70;99.90
11089;DHT22;5598;48.648;8.908;2023-03-31T04:25:50;7.70;99.90
11089;DHT22;5598;48.648;8.908;2023-03-31T04:28:17;7.70;99.90
11089;DHT22;5598;48.648;8.908;2023-03-31T04:30:44;7.80;99.90
11089;DHT22;5598;48.648;8.908;2023-03-31T04:33:11;7.80;99.90
11089;DHT22;5598;48.648;8.908;2023-03-31T04:35:40;7.80;99.90
11089;DHT22;5598;48.648;8.908;2023-03-31T04:38:14;7.80;99.90
11089;DHT22;5598;48.648;8.908;2023-03-31T04:40:43;7.90;99.90
11089;DHT22;5598;48.648;8.908;2023-03-31T04:43:12;7.80;99.90
11089;DHT22;5598;48.648;8.908;2023-03-31T04:45:39;7.90;99.90
11089;DHT22;5598;48.648;8.908;2023-03-31T04:48:06;7.90;99.90
11089;DHT22;5598;48.648;8.908;2023-03-31T04:50:34;7.90;99.90
11089;DHT22;5598;48.648;8.908;2023-03-31T04:53:06;8.00;99.90
11089;DHT22;5598;48.648;8.908;2023-03-31T04:55:34;7.90;99.90
11089;DHT22;5598;48.648;8.908;2023-03-31T04:58:00;7.90;99.90
11089;DHT22;5598;48.648;8.908;2023-03-31T05:00:29;7.90;99.90
11089;DHT22;5598;48.648;8.908;2023-03-31T05:02:56;7.90;99.90
11089;DHT22;5598;48.648;8.908;2023-03-31T05:05:22;7.90;99.90
11089;DHT22;5598;48.648;8.908;2023-03-31T05:07:49;7.90;99.90
11089;DHT22;5598;48.648;8.908;2023-03-31T05:10:16;7.80;99.90
11089;DHT22;5598;48.648;8.908;2023-03-31T05:12:43;7.70;99.90
11089;DHT22;5598;48.648;8.908;2023-03-31T05:15:10;7.80;99.90
11089;DHT22;5598;48.648;8.908;2023-03-31T05:17:38;7.80;99.90
11089;DHT22;5598;48.648;8.908;2023-03-31T05:20:06;7.80;99.90
11089;DHT22;5598;48.648;8.908;2023-03-31T05:22:35;7.80;99.90
11089;DHT22;5598;48.648;8.908;2023-03-31T05:25:02;7.70;99.90
11089;DHT22;5598;48.648;8.908;2023-03-31T05:27:29;7.70;99.90
11089;DHT22;5598;48.648;8.908;2023-03-31T05:29:56;7.70;99.90
11089;DHT22;5598;48.648;8.908;2023-03-31T05:32:24;7.80;99.90
11089;DHT22;5598;48.648;8.908;2023-03-31T05:34:52;7.80;99.90
11089;DHT22;5598;48.648;8.908;2023-03-31T05:37:21;7.80;99.90
11089;DHT22;5598;48.648;8.908;2023-03-31T05:39:49;7.70;99.90
11089;DHT22;5598;48.648;8.908;2023-03-31T05:42:16;7.80;99.90
11089;DHT22;5598;48.648;8.908;2023-03-31T05:44:43;7.80;99.90
11089;DHT22;5598;48.648;8.908;2023-03-31T05:47:10;7.80;99.90
11089;DHT22;5598;48.648;8.908;2023-03-31T05:49:37;7.70;99.90
11089;DHT22;5598;48.648;8.908;2023-03-31T05:52:06;7.70;99.90
11089;DHT22;5598;48.648;8.908;2023-03-31T05:54:33;7.80;99.90
11089;DHT22;5598;48.648;8.908;2023-03-31T05:57:00;7.80;99.90
11089;DHT22;5598;48.648;8.908;2023-03-31T05:59:27;7.80;99.90
11089;DHT22;5598;48.648;8.908;2023-03-31T06:01:54;7.90;99.90
11089;DHT22;5598;48.648;8.908;2023-03-31T06:04:21;8.00;99.90
11089;DHT22;5598;48.648;8.908;2023-03-31T06:06:48;8.00;99.90
11089;DHT22;5598;48.648;8.908;2023-03-31T06:09:17;8.00;99.90
11089;DHT22;5598;48.648;8.908;2023-03-31T06:11:44;8.00;99.90
11089;DHT22;5598;48.648;8.908;2023-03-31T06:14:11;8.10;99.90
11089;DHT22;5598;48.648;8.908;2023-03-31T06:16:38;8.30;99.90
11089;DHT22;5598;48.648;8.908;2023-03-31T06:19:05;8.40;99.90
11089;DHT22;5598;48.648;8.908;2023-03-31T06:21:32;8.40;99.90
11089;DHT22;5598;48.648;8.908;2023-03-31T06:24:00;8.40;99.90
11089;DHT22;5598;48.648;8.908;2023-03-31T06:26:28;8.40;99.90
11089;DHT22;5598;48.648;8.908;2023-03-31T06:28:55;8.40;99.90
11089;DHT22;5598;48.648;8.908;2023-03-31T06:31:23;8.30;99.90
11089;DHT22;5598;48.648;8.908;2023-03-31T06:33:50;8.30;99.90
11089;DHT22;5598;48.648;8.908;2023-03-31T06:36:19;8.20;99.90
11089;DHT22;5598;48.648;8.908;2023-03-31T06:38:47;8.30;99.90
11089;DHT22;5598;48.648;8.908;2023-03-31T06:41:15;8.20;99.90
11089;DHT22;5598;48.648;8.908;2023-03-31T06:43:44;8.20;99.90
11089;DHT22;5598;48.648;8.908;2023-03-31T06:46:11;8.20;99.90
11089;DHT22;5598;48.648;8.908;2023-03-31T06:48:39;8.20;99.90
11089;DHT22;5598;48.648;8.908;2023-03-31T06:51:07;8.10;99.90
11089;DHT22;5598;48.648;8.908;2023-03-31T06:53:34;8.10;99.90
11089;DHT22;5598;48.648;8.908;2023-03-31T06:56:02;8.10;99.90
11089;DHT22;5598;48.648;8.908;2023-03-31T06:58:29;8.10;99.90
11089;DHT22;5598;48.648;8.908;2023-03-31T07:00:57;8.10;99.90
11089;DHT22;5598;48.648;8.908;2023-03-31T07:03:24;8.10;99.90
11089;DHT22;5598;48.648;8.908;2023-03-31T07:05:52;8.10;99.90
11089;DHT22;5598;48.648;8.908;2023-03-31T07:08:20;8.10;99.90
11089;DHT22;5598;48.648;8.908;2023-03-31T07:10:47;8.10;99.90
11089;DHT22;5598;48.648;8.908;2023-03-31T07:13:15;8.10;99.90
11089;DHT22;5598;48.648;8.908;2023-03-31T07:15:43;8.00;99.90
11089;DHT22;5598;48.648;8.908;2023-03-31T07:18:11;8.00;99.90
11089;DHT22;5598;48.648;8.908;2023-03-31T07:20:40;7.90;99.90
11089;DHT22;5598;48.648;8.908;2023-03-31T07:23:07;7.90;99.90
11089;DHT22;5598;48.648;8.908;2023-03-31T07:25:34;7.80;99.90
11089;DHT22;5598;48.648;8.908;2023-03-31T07:28:02;8.00;99.90
11089;DHT22;5598;48.648;8.908;2023-03-31T07:30:29;8.90;99.90
11089;DHT22;5598;48.648;8.908;2023-03-31T07:32:56;10.10;99.90
11089;DHT22;5598;48.648;8.908;2023-03-31T07:35:25;10.30;99.90
11089;DHT22;5598;48.648;8.908;2023-03-31T07:37:52;10.30;99.90
11089;DHT22;5598;48.648;8.908;2023-03-31T07:40:22;9.80;99.90
11089;DHT22;5598;48.648;8.908;2023-03-31T07:42:49;9.70;99.90
11089;DHT22;5598;48.648;8.908;2023-03-31T07:45:18;9.60;99.90
11089;DHT22;5598;48.648;8.908;2023-03-31T07:47:45;9.50;99.90
11089;DHT22;5598;48.648;8.908;2023-03-31T07:50:12;9.50;99.90
11089;DHT22;5598;48.648;8.908;2023-03-31T07:52:42;9.50;99.90
11089;DHT22;5598;48.648;8.908;2023-03-31T07:55:09;9.50;99.90
11089;DHT22;5598;48.648;8.908;2023-03-31T07:57:37;9.40;99.90
11089;DHT22;5598;48.648;8.908;2023-03-31T08:00:06;9.40;99.90
11089;DHT22;5598;48.648;8.908;2023-03-31T08:02:35;9.50;99.90
11089;DHT22;5598;48.648;8.908;2023-03-31T08:05:02;9.50;99.90
11089;DHT22;5598;48.648;8.908;2023-03-31T08:07:31;9.50;99.90
11089;DHT22;5598;48.648;8.908;2023-03-31T08:10:00;9.60;99.90
11089;DHT22;5598;48.648;8.908;2023-03-31T08:12:26;9.60;99.90
11089;DHT22;5598;48.648;8.908;2023-03-31T08:14:53;9.60;99.90
11089;DHT22;5598;48.648;8.908;2023-03-31T08:17:20;9.70;99.90
11089;DHT22;5598;48.648;8.908;2023-03-31T08:19:47;9.70;99.90
11089;DHT22;5598;48.648;8.908;2023-03-31T08:22:14;9.80;99.90
11089;DHT22;5598;48.648;8.908;2023-03-31T08:24:41;9.90;99.90
11089;DHT22;5598;48.648;8.908;2023-03-31T08:27:09;10.00;99.90
11089;DHT22;5598;48.648;8.908;2023-03-31T08:29:36;10.10;99.90
11089;DHT22;5598;48.648;8.908;2023-03-31T08:32:03;10.20;99.90
11089;DHT22;5598;48.648;8.908;2023-03-31T08:34:31;10.50;99.90
11089;DHT22;5598;48.648;8.908;2023-03-31T08:36:58;10.90;99.90
11089;DHT22;5598;48.648;8.908;2023-03-31T08:39:25;11.10;99.90
11089;DHT22;5598;48.648;8.908;2023-03-31T08:41:57;11.40;99.90
11089;DHT22;5598;48.648;8.908;2023-03-31T08:44:30;11.50;99.90
11089;DHT22;5598;48.648;8.908;2023-03-31T08:47:00;11.80;99.90
11089;DHT22;5598;48.648;8.908;2023-03-31T08:49:28;11.70;99.90
11089;DHT22;5598;48.648;8.908;2023-03-31T08:51:58;11.70;99.90
11089;DHT22;5598;48.648;8.908;2023-03-31T08:54:30;11.80;99.90
11089;DHT22;5598;48.648;8.908;2023-03-31T08:56:59;11.80;99.90
11089;DHT22;5598;48.648;8.908;2023-03-31T08:59:30;11.60;99.90
11089;DHT22;5598;48.648;8.908;2023-03-31T09:02:04;11.70;99.90
11089;DHT22;5598;48.648;8.908;2023-03-31T09:07:38;11.90;99.90
11089;DHT22;5598;48.648;8.908;2023-03-31T09:10:21;11.90;99.90
11089;DHT22;5598;48.648;8.908;2023-03-31T09:12:56;11.80;99.90
11089;DHT22;5598;48.648;8.908;2023-03-31T09:15:34;12.00;99.90
11089;DHT22;5598;48.648;8.908;2023-03-31T09:18:10;12.10;99.90
11089;DHT22;5598;48.648;8.908;2023-03-31T09:20:39;12.30;99.90
11089;DHT22;5598;48.648;8.908;2023-03-31T09:23:17;12.40;99.90
11089;DHT22;5598;48.648;8.908;2023-03-31T09:25:47;12.40;99.90
11089;DHT22;5598;48.648;8.908;2023-03-31T09:28:18;12.30;99.90
11089;DHT22;5598;48.648;8.908;2023-03-31T09:30:48;12.30;99.90
11089;DHT22;5598;48.648;8.908;2023-03-31T09:33:17;12.30;99.90
11089;DHT22;5598;48.648;8.908;2023-03-31T09:35:44;12.10;99.90
11089;DHT22;5598;48.648;8.908;2023-03-31T09:38:12;12.00;99.90
11089;DHT22;5598;48.648;8.908;2023-03-31T09:40:41;11.80;99.90
11089;DHT22;5598;48.648;8.908;2023-03-31T09:43:21;11.60;99.90
11089;DHT22;5598;48.648;8.908;2023-03-31T09:45:51;11.90;99.90
11089;DHT22;5598;48.648;8.908;2023-03-31T09:48:20;12.00;99.90
11089;DHT22;5598;48.648;8.908;2023-03-31T09:50:50;12.00;99.90
11089;DHT22;5598;48.648;8.908;2023-03-31T09:53:23;13.00;99.90
11089;DHT22;5598;48.648;8.908;2023-03-31T09:56:01;13.90;99.90
11089;DHT22;5598;48.648;8.908;2023-03-31T09:58:28;13.90;99.90
11089;DHT22;5598;48.648;8.908;2023-03-31T10:00:58;13.40;99.90
11089;DHT22;5598;48.648;8.908;2023-03-31T10:03:27;12.90;99.90
11089;DHT22;5598;48.648;8.908;2023-03-31T10:05:56;13.00;99.90
11089;DHT22;5598;48.648;8.908;2023-03-31T10:08:26;13.40;99.90
11089;DHT22;5598;48.648;8.908;2023-03-31T10:10:55;14.00;99.90
11089;DHT22;5598;48.648;8.908;2023-03-31T10:13:24;14.60;99.90
11089;DHT22;5598;48.648;8.908;2023-03-31T10:15:54;14.60;99.90
11089;DHT22;5598;48.648;8.908;2023-03-31T10:18:32;15.10;99.90
11089;DHT22;5598;48.648;8.908;2023-03-31T10:21:00;15.70;97.80
11089;DHT22;5598;48.648;8.908;2023-03-31T10:23:29;15.70;97.40
11089;DHT22;5598;48.648;8.908;2023-03-31T10:25:57;15.70;99.90
11089;DHT22;5598;48.648;8.908;2023-03-31T10:28:25;16.10;95.20
11089;DHT22;5598;48.648;8.908;2023-03-31T10:30:54;16.10;96.90
11089;DHT22;5598;48.648;8.908;2023-03-31T10:33:25;16.60;92.80
11089;DHT22;5598;48.648;8.908;2023-03-31T10:35:55;16.20;95.00
11089;DHT22;5598;48.648;8.908;2023-03-31T10:38:25;16.40;92.70
11089;DHT22;5598;48.648;8.908;2023-03-31T10:40:54;15.30;94.20
11089;DHT22;5598;48.648;8.908;2023-03-31T10:43:26;15.40;92.90
11089;DHT22;5598;48.648;8.908;2023-03-31T10:45:54;15.80;93.90
11089;DHT22;5598;48.648;8.908;2023-03-31T10:48:26;15.40;95.20
11089;DHT22;5598;48.648;8.908;2023-03-31T10:50:54;15.10;95.90
11089;DHT22;5598;48.648;8.908;2023-03-31T10:53:24;14.60;93.80
11089;DHT22;5598;48.648;8.908;2023-03-31T10:56:12;15.00;94.30
11089;DHT22;5598;48.648;8.908;2023-03-31T10:58:55;15.10;94.70
11089;DHT22;5598;48.648;8.908;2023-03-31T11:01:36;14.70;95.40
11089;DHT22;5598;48.648;8.908;2023-03-31T11:04:36;14.00;94.40
11089;DHT22;5598;48.648;8.908;2023-03-31T11:07:08;13.40;96.30
11089;DHT22;5598;48.648;8.908;2023-03-31T11:09:45;12.60;99.90
11089;DHT22;5598;48.648;8.908;2023-03-31T11:12:20;11.50;99.90
11089;DHT22;5598;48.648;8.908;2023-03-31T11:15:02;10.40;99.90
11089;DHT22;5598;48.648;8.908;2023-03-31T11:17:38;9.30;99.90
11089;DHT22;5598;48.648;8.908;2023-03-31T11:20:15;8.40;99.90
11089;DHT22;5598;48.648;8.908;2023-03-31T11:22:52;8.20;99.90
11089;DHT22;5598;48.648;8.908;2023-03-31T11:25:26;8.20;99.90
11089;DHT22;5598;48.648;8.908;2023-03-31T11:31:07;7.90;99.90
11089;DHT22;5598;48.648;8.908;2023-03-31T11:39:35;7.60;99.90
11089;DHT22;5598;48.648;8.908;2023-03-31T11:42:08;7.60;99.90
11089;DHT22;5598;48.648;8.908;2023-03-31T11:44:40;7.70;99.90
11089;DHT22;5598;48.648;8.908;2023-03-31T11:47:11;7.90;99.90
11089;DHT22;5598;48.648;8.908;2023-03-31T11:49:46;8.30;99.90
11089;DHT22;5598;48.648;8.908;2023-03-31T11:52:17;9.10;99.90
11089;DHT22;5598;48.648;8.908;2023-03-31T11:54:49;9.90;99.90
11089;DHT22;5598;48.648;8.908;2023-03-31T11:57:22;10.60;99.90
11089;DHT22;5598;48.648;8.908;2023-03-31T11:59:54;11.20;99.90
11089;DHT22;5598;48.648;8.908;2023-03-31T12:02:30;11.50;99.90
11089;DHT22;5598;48.648;8.908;2023-03-31T12:05:00;10.90;99.90
11089;DHT22;5598;48.648;8.908;2023-03-31T12:07:31;10.70;99.90
11089;DHT22;5598;48.648;8.908;2023-03-31T12:10:10;10.70;99.90
11089;DHT22;5598;48.648;8.908;2023-03-31T12:12:41;11.40;99.90
11089;DHT22;5598;48.648;8.908;2023-03-31T12:15:19;12.10;99.90
11089;DHT22;5598;48.648;8.908;2023-03-31T12:17:51;12.60;99.90
11089;DHT22;5598;48.648;8.908;2023-03-31T12:20:28;13.00;99.90
11089;DHT22;5598;48.648;8.908;2023-03-31T12:22:58;13.50;99.90
11089;DHT22;5598;48.648;8.908;2023-03-31T12:25:35;13.80;99.90
11089;DHT22;5598;48.648;8.908;2023-03-31T12:28:04;13.70;99.90
11089;DHT22;5598;48.648;8.908;2023-03-31T12:30:33;13.80;99.90
11089;DHT22;5598;48.648;8.908;2023-03-31T12:33:06;13.50;99.90
11089;DHT22;5598;48.648;8.908;2023-03-31T12:35:41;13.90;99.90
11089;DHT22;5598;48.648;8.908;2023-03-31T12:38:21;14.10;99.90
11089;DHT22;5598;48.648;8.908;2023-03-31T12:41:00;14.00;99.90
11089;DHT22;5598;48.648;8.908;2023-03-31T12:43:49;14.60;99.90
11089;DHT22;5598;48.648;8.908;2023-03-31T12:46:35;14.90;99.90
11089;DHT22;5598;48.648;8.908;2023-03-31T12:49:14;14.90;99.90
11089;DHT22;5598;48.648;8.908;2023-03-31T12:51:57;14.80;99.90
11089;DHT22;5598;48.648;8.908;2023-03-31T12:54:41;14.30;99.90
11089;DHT22;5598;48.648;8.908;2023-03-31T12:57:19;13.20;99.90
11089;DHT22;5598;48.648;8.908;2023-03-31T13:00:12;12.80;99.90
11089;DHT22;5598;48.648;8.908;2023-03-31T13:02:43;12.80;99.90
11089;DHT22;5598;48.648;8.908;2023-03-31T13:05:45;12.70;99.90
11089;DHT22;5598;48.648;8.908;2023-03-31T13:08:50;12.70;99.90
11089;DHT22;5598;48.648;8.908;2023-03-31T13:11:19;12.30;99.90
11089;DHT22;5598;48.648;8.908;2023-03-31T13:13:57;12.00;99.90
11089;DHT22;5598;48.648;8.908;2023-03-31T13:16:24;11.90;99.90
11089;DHT22;5598;48.648;8.908;2023-03-31T13:18:52;11.70;99.90
11089;DHT22;5598;48.648;8.908;2023-03-31T13:21:20;11.20;99.90
11089;DHT22;5598;48.648;8.908;2023-03-31T13:23:47;10.70;99.90
11089;DHT22;5598;48.648;8.908;2023-03-31T13:26:38;10.40;99.90
11089;DHT22;5598;48.648;8.908;2023-03-31T13:29:18;9.80;99.90
11089;DHT22;5598;48.648;8.908;2023-03-31T13:32:19;9.50;99.90
11089;DHT22;5598;48.648;8.908;2023-03-31T13:34:57;8.90;99.90
11089;DHT22;5598;48.648;8.908;2023-03-31T13:37:36;8.60;99.90
11089;DHT22;5598;48.648;8.908;2023-03-31T13:40:23;8.20;99.90
11089;DHT22;5598;48.648;8.908;2023-03-31T13:43:05;7.80;99.90
11089;DHT22;5598;48.648;8.908;2023-03-31T13:48:48;7.50;99.90
11089;DHT22;5598;48.648;8.908;2023-03-31T13:51:33;7.30;99.90
11089;DHT22;5598;48.648;8.908;2023-03-31T13:54:32;7.30;99.90
11089;DHT22;5598;48.648;8.908;2023-03-31T14:00:20;7.80;99.90
11089;DHT22;5598;48.648;8.908;2023-03-31T14:05:47;9.40;99.90
11089;DHT22;5598;48.648;8.908;2023-03-31T14:08:22;9.70;99.90
11089;DHT22;5598;48.648;8.908;2023-03-31T14:11:15;9.80;99.90
11089;DHT22;5598;48.648;8.908;2023-03-31T14:13:42;9.70;99.90
11089;DHT22;5598;48.648;8.908;2023-03-31T14:16:11;9.50;99.90
11089;DHT22;5598;48.648;8.908;2023-03-31T14:18:44;9.30;99.90
11089;DHT22;5598;48.648;8.908;2023-03-31T14:21:20;9.10;99.90
11089;DHT22;5598;48.648;8.908;2023-03-31T14:23:56;8.80;99.90
11089;DHT22;5598;48.648;8.908;2023-03-31T14:26:43;8.80;99.90
11089;DHT22;5598;48.648;8.908;2023-03-31T14:29:16;9.10;99.90
11089;DHT22;5598;48.648;8.908;2023-03-31T14:31:52;9.40;99.90
11089;DHT22;5598;48.648;8.908;2023-03-31T14:34:43;9.60;99.90
11089;DHT22;5598;48.648;8.908;2023-03-31T14:37:13;9.60;99.90
11089;DHT22;5598;48.648;8.908;2023-03-31T14:39:44;9.80;99.90
11089;DHT22;5598;48.648;8.908;2023-03-31T14:42:13;9.80;99.90
11089;DHT22;5598;48.648;8.908;2023-03-31T14:44:42;10.00;99.90
11089;DHT22;5598;48.648;8.908;2023-03-31T14:47:15;9.90;99.90
11089;DHT22;5598;48.648;8.908;2023-03-31T14:49:45;10.00;99.90
11089;DHT22;5598;48.648;8.908;2023-03-31T14:52:15;10.10;99.90
11089;DHT22;5598;48.648;8.908;2023-03-31T14:54:44;10.20;99.90
11089;DHT22;5598;48.648;8.908;2023-03-31T14:57:15;10.40;99.90
11089;DHT22;5598;48.648;8.908;2023-03-31T14:59:43;10.40;99.90
11089;DHT22;5598;48.648;8.908;2023-03-31T15:02:16;10.60;99.90
11089;DHT22;5598;48.648;8.908;2023-03-31T15:04:47;10.80;99.90
11089;DHT22;5598;48.648;8.908;2023-03-31T15:07:16;10.80;99.90
11089;DHT22;5598;48.648;8.908;2023-03-31T15:09:47;10.80;99.90
11089;DHT22;5598;48.648;8.908;2023-03-31T15:12:16;10.90;99.90
11089;DHT22;5598;48.648;8.908;2023-03-31T15:14:47;11.10;99.90
11089;DHT22;5598;48.648;8.908;2023-03-31T15:17:21;11.10;99.90
11089;DHT22;5598;48.648;8.908;2023-03-31T15:19:53;11.00;99.90
11089;DHT22;5598;48.648;8.908;2023-03-31T15:22:22;10.80;99.90
11089;DHT22;5598;48.648;8.908;2023-03-31T15:24:49;10.70;99.90
11089;DHT22;5598;48.648;8.908;2023-03-31T15:27:19;10.50;99.90
11089;DHT22;5598;48.648;8.908;2023-03-31T15:29:49;10.30;99.90
11089;DHT22;5598;48.648;8.908;2023-03-31T15:32:23;10.30;99.90
11089;DHT22;5598;48.648;8.908;2023-03-31T15:34:51;10.20;99.90
11089;DHT22;5598;48.648;8.908;2023-03-31T15:37:21;10.20;99.90
11089;DHT22;5598;48.648;8.908;2023-03-31T15:39:51;10.20;99.90
11089;DHT22;5598;48.648;8.908;2023-03-31T15:42:21;10.10;99.90
11089;DHT22;5598;48.648;8.908;2023-03-31T15:44:53;10.10;99.90
11089;DHT22;5598;48.648;8.908;2023-03-31T15:47:23;10.00;99.90
11089;DHT22;5598;48.648;8.908;2023-03-31T15:49:56;10.00;99.90
11089;DHT22;5598;48.648;8.908;2023-03-31T15:52:29;10.00;99.90
11089;DHT22;5598;48.648;8.908;2023-03-31T15:54:57;10.00;99.90
11089;DHT22;5598;48.648;8.908;2023-03-31T15:57:31;10.00;99.90
11089;DHT22;5598;48.648;8.908;2023-03-31T15:59:58;10.00;99.90
11089;DHT22;5598;48.648;8.908;2023-03-31T16:02:37;10.00;99.90
11089;DHT22;5598;48.648;8.908;2023-03-31T16:05:06;10.00;99.90
11089;DHT22;5598;48.648;8.908;2023-03-31T16:07:45;10.00;99.90
11089;DHT22;5598;48.648;8.908;2023-03-31T16:10:17;9.90;99.90
11089;DHT22;5598;48.648;8.908;2023-03-31T16:12:49;9.90;99.90
11089;DHT22;5598;48.648;8.908;2023-03-31T16:15:20;9.70;99.90
11089;DHT22;5598;48.648;8.908;2023-03-31T16:17:52;9.20;99.90
11089;DHT22;5598;48.648;8.908;2023-03-31T16:20:22;8.70;99.90
11089;DHT22;5598;48.648;8.908;2023-03-31T16:22:52;8.50;99.90
11089;DHT22;5598;48.648;8.908;2023-03-31T16:25:22;8.30;99.90
11089;DHT22;5598;48.648;8.908;2023-03-31T16:27:52;8.20;99.90
11089;DHT22;5598;48.648;8.908;2023-03-31T16:30:21;8.10;99.90
11089;DHT22;5598;48.648;8.908;2023-03-31T16:33:00;7.90;99.90
11089;DHT22;5598;48.648;8.908;2023-03-31T16:35:32;7.70;99.90
11089;DHT22;5598;48.648;8.908;2023-03-31T16:38:01;7.70;99.90
11089;DHT22;5598;48.648;8.908;2023-03-31T16:40:29;7.60;99.90
11089;DHT22;5598;48.648;8.908;2023-03-31T16:43:14;7.60;99.90
11089;DHT22;5598;48.648;8.908;2023-03-31T16:45:43;7.60;99.90
11089;DHT22;5598;48.648;8.908;2023-03-31T16:48:12;7.60;99.90
11089;DHT22;5598;48.648;8.908;2023-03-31T16:50:41;7.60;99.90
11089;DHT22;5598;48.648;8.908;2023-03-31T16:53:07;7.70;99.90